Time;durP1;ratioP1;P1;durP2;ratioP2;P2;SDS_P1;SDS_P2;PMS_P1;PMS_P2;Temp;Humidity;BMP_temperature;BMP_pressure;BME280_temperature;BME280_humidity;BME280_pressure;Samples;Min_cycle;Max_cycle;Signal;HPM_P1;HPM_P2
2024/01/02 00:02:10;;;;;;;6.57;4.32;;;;;;;;;;5123881;27;20428;-66
2024/01/02 00:04:37;;;;;;;10.00;4.78;;;;;;;;;;5123526;27;20497;-65
2024/01/02 00:07:03;;;;;;;9.02;4.30;;;;;;;;;;5123606;27;20043;-65
2024/01/02 00:09:29;;;;;;;12.13;4.50;;;;;;;;;;5124013;27;20046;-63
2024/01/02 00:11:55;;;;;;;11.40;4.10;;;;;;;;;;5124262;27;20376;-66
2024/01/02 00:14:21;;;;;;;8.52;4.78;;;;;;;;;;5124134;27;20087;-65
2024/01/02 00:16:47;;;;;;;7.93;3.85;;;;;;;;;;5105068;27;20133;-65
2024/01/02 00:19:13;;;;;;;7.30;3.17;;;;;;;;;;5124321;27;20206;-64
2024/01/02 00:21:39;;;;;;;9.57;4.70;;;;;;;;;;5123554;27;20651;-64
2024/01/02 00:24:06;;;;;;;6.95;3.78;;;;;;;;;;5123388;27;20041;-64
2024/01/02 00:26:32;;;;;;;5.70;3.75;;;;;;;;;;5124555;27;20039;-63
2024/01/02 00:28:58;;;;;;;7.25;3.65;;;;;;;;;;5123014;27;20119;-65
2024/01/02 00:31:24;;;;;;;8.07;3.67;;;;;;;;;;5105340;27;20035;-64
2024/01/02 00:33:50;;;;;;;5.78;3.38;;;;;;;;;;5124359;27;20035;-65
2024/01/02 00:36:17;;;;;;;8.73;3.33;;;;;;;;;;5123130;27;20144;-63
2024/01/02 00:38:43;;;;;;;7.45;3.20;;;;;;;;;;5122239;27;20073;-65
2024/01/02 00:41:09;;;;;;;10.82;4.20;;;;;;;;;;5101051;28;20799;-66
2024/01/02 00:43:35;;;;;;;9.50;3.65;;;;;;;;;;5101829;28;20047;-64
2024/01/02 00:46:02;;;;;;;7.38;3.42;;;;;;;;;;5103037;28;20108;-65
2024/01/02 00:48:28;;;;;;;6.18;3.28;;;;;;;;;;5103388;28;20050;-65
2024/01/02 00:50:55;;;;;;;6.82;3.05;;;;;;;;;;5101570;28;20044;-64
2024/01/02 00:53:21;;;;;;;10.88;3.40;;;;;;;;;;5102102;28;20398;-65
2024/01/02 00:55:47;;;;;;;9.23;3.47;;;;;;;;;;5101364;28;20043;-65
2024/01/02 00:58:13;;;;;;;13.25;3.97;;;;;;;;;;5100916;28;20498;-65
2024/01/02 01:00:39;;;;;;;7.35;2.65;;;;;;;;;;5103404;28;20062;-65
2024/01/02 01:03:05;;;;;;;9.63;3.75;;;;;;;;;;5102669;28;20714;-65
2024/01/02 01:05:31;;;;;;;7.57;3.55;;;;;;;;;;5102539;28;20468;-65
2024/01/02 01:07:57;;;;;;;8.15;3.20;;;;;;;;;;5101548;28;20581;-65
2024/01/02 01:10:23;;;;;;;11.45;3.00;;;;;;;;;;5102951;28;20158;-65
2024/01/02 01:12:49;;;;;;;6.07;3.28;;;;;;;;;;5102170;28;20724;-65
2024/01/02 01:15:16;;;;;;;8.45;2.90;;;;;;;;;;5103369;28;20104;-65
2024/01/02 01:17:42;;;;;;;7.57;3.10;;;;;;;;;;5101976;28;20537;-65
2024/01/02 01:20:08;;;;;;;10.57;4.22;;;;;;;;;;5101018;28;20282;-64
2024/01/02 01:22:35;;;;;;;6.88;3.55;;;;;;;;;;5102309;28;20483;-65
2024/01/02 01:25:01;;;;;;;6.05;3.38;;;;;;;;;;5102786;28;20505;-65
2024/01/02 01:27:27;;;;;;;5.03;2.92;;;;;;;;;;5102361;28;20067;-65
2024/01/02 01:29:53;;;;;;;9.18;2.80;;;;;;;;;;5102053;28;20093;-65
2024/01/02 01:32:19;;;;;;;7.30;3.65;;;;;;;;;;5102832;28;20582;-65
2024/01/02 01:34:45;;;;;;;12.18;3.40;;;;;;;;;;5102003;28;20046;-65
2024/01/02 01:37:11;;;;;;;6.13;2.83;;;;;;;;;;5102199;28;20054;-65
2024/01/02 01:39:37;;;;;;;11.82;2.72;;;;;;;;;;5102508;28;20113;-65
2024/01/02 01:42:03;;;;;;;6.68;2.90;;;;;;;;;;5123600;27;20112;-65
2024/01/02 01:44:30;;;;;;;10.05;3.85;;;;;;;;;;5126404;27;20045;-64
2024/01/02 01:46:56;;;;;;;9.20;3.00;;;;;;;;;;5127480;27;20074;-65
2024/01/02 01:49:22;;;;;;;7.13;2.60;;;;;;;;;;5126295;27;20090;-64
2024/01/02 01:51:50;;;;;;;9.20;3.45;;;;;;;;;;5127192;27;20119;-65
2024/01/02 01:54:17;;;;;;;9.38;2.50;;;;;;;;;;5125494;27;20046;-64
2024/01/02 01:56:43;;;;;;;5.32;2.30;;;;;;;;;;5127034;27;20107;-65
2024/01/02 01:59:12;;;;;;;5.15;2.22;;;;;;;;;;5125992;27;20084;-67
2024/01/02 02:01:39;;;;;;;6.45;3.00;;;;;;;;;;5127930;27;20133;-65
2024/01/02 02:04:05;;;;;;;4.75;2.22;;;;;;;;;;5126328;27;20039;-65
2024/01/02 02:06:31;;;;;;;7.00;2.80;;;;;;;;;;5127181;27;20457;-65
2024/01/02 02:08:58;;;;;;;7.47;2.30;;;;;;;;;;5125575;27;20035;-65
2024/01/02 02:11:25;;;;;;;14.07;2.92;;;;;;;;;;5128000;27;20531;-65
2024/01/02 02:13:52;;;;;;;7.45;2.63;;;;;;;;;;5127223;27;20505;-65
2024/01/02 02:16:19;;;;;;;6.35;2.22;;;;;;;;;;5127420;27;20047;-65
2024/01/02 02:18:45;;;;;;;6.97;3.15;;;;;;;;;;5126339;27;20379;-65
2024/01/02 02:21:11;;;;;;;6.57;2.58;;;;;;;;;;5125444;27;20635;-65
2024/01/02 02:23:37;;;;;;;12.27;3.25;;;;;;;;;;5124679;27;20042;-64
2024/01/02 02:26:03;;;;;;;5.30;2.50;;;;;;;;;;5126581;27;20039;-65
2024/01/02 02:28:29;;;;;;;6.60;3.10;;;;;;;;;;5106036;27;20119;-65
2024/01/02 02:30:55;;;;;;;10.50;3.20;;;;;;;;;;5127091;27;20294;-64
2024/01/02 02:33:21;;;;;;;4.10;2.28;;;;;;;;;;5125975;27;20039;-65
2024/01/02 02:35:48;;;;;;;5.80;2.53;;;;;;;;;;5124751;27;20139;-65
2024/01/02 02:38:14;;;;;;;9.48;2.30;;;;;;;;;;5125153;27;20047;-65
2024/01/02 02:40:40;;;;;;;5.43;2.17;;;;;;;;;;5125202;27;20051;-65
2024/01/02 02:43:07;;;;;;;5.45;1.95;;;;;;;;;;5104668;27;20157;-64
2024/01/02 02:45:34;;;;;;;17.42;4.30;;;;;;;;;;5126428;27;20045;-64
2024/01/02 02:48:00;;;;;;;4.05;1.83;;;;;;;;;;5125643;27;20546;-64
2024/01/02 02:50:26;;;;;;;5.72;2.53;;;;;;;;;;5124975;27;20387;-65
2024/01/02 02:52:52;;;;;;;5.93;2.53;;;;;;;;;;5124451;27;20146;-64
2024/01/02 02:55:18;;;;;;;5.25;1.75;;;;;;;;;;5125494;27;20049;-66
2024/01/02 02:57:44;;;;;;;6.90;2.17;;;;;;;;;;5105765;27;20088;-65
2024/01/02 03:00:11;;;;;;;4.05;1.98;;;;;;;;;;5125649;27;20527;-64
2024/01/02 03:02:37;;;;;;;5.53;2.25;;;;;;;;;;5125329;27;20351;-65
2024/01/02 03:05:03;;;;;;;6.38;2.70;;;;;;;;;;5105066;27;20067;-65
2024/01/02 03:07:29;;;;;;;4.53;2.22;;;;;;;;;;5124769;27;20047;-66
2024/01/02 03:09:55;;;;;;;4.45;2.42;;;;;;;;;;5106028;27;20122;-65
2024/01/02 03:12:22;;;;;;;4.32;2.25;;;;;;;;;;5124899;27;20401;-65
2024/01/02 03:14:48;;;;;;;4.82;1.98;;;;;;;;;;5105341;27;20043;-65
2024/01/02 03:17:14;;;;;;;3.63;1.90;;;;;;;;;;5105401;27;20039;-64
2024/01/02 03:19:40;;;;;;;4.25;2.47;;;;;;;;;;5124402;27;20039;-64
2024/01/02 03:22:06;;;;;;;5.35;2.20;;;;;;;;;;5123631;27;20078;-64
2024/01/02 03:24:32;;;;;;;3.33;1.80;;;;;;;;;;5125376;27;20533;-64
2024/01/02 03:26:58;;;;;;;4.20;2.05;;;;;;;;;;5124752;27;20035;-64
2024/01/02 03:29:26;;;;;;;15.48;3.28;;;;;;;;;;5118440;27;20424;-64
2024/01/02 03:31:53;;;;;;;4.15;2.00;;;;;;;;;;5119154;27;20047;-64
2024/01/02 03:34:20;;;;;;;6.85;2.00;;;;;;;;;;5122341;27;20470;-64
2024/01/02 03:36:46;;;;;;;5.40;2.35;;;;;;;;;;5121389;27;20046;-63
2024/01/02 03:39:12;;;;;;;6.25;1.88;;;;;;;;;;5120932;27;20107;-64
2024/01/02 03:41:38;;;;;;;9.80;2.67;;;;;;;;;;5102425;27;20344;-64
2024/01/02 03:44:05;;;;;;;5.47;2.40;;;;;;;;;;5121065;27;20401;-65
2024/01/02 03:46:32;;;;;;;6.18;2.60;;;;;;;;;;5121759;27;20039;-65
2024/01/02 03:48:58;;;;;;;3.95;2.13;;;;;;;;;;5122220;27;20163;-64
2024/01/02 03:51:24;;;;;;;5.72;2.15;;;;;;;;;;5119066;27;20051;-63
2024/01/02 03:53:51;;;;;;;4.78;2.50;;;;;;;;;;5120866;27;20408;-62
2024/01/02 03:56:17;;;;;;;5.47;2.83;;;;;;;;;;5084144;27;20049;-63
2024/01/02 03:58:43;;;;;;;6.78;2.55;;;;;;;;;;5119333;27;20039;-64
2024/01/02 04:01:09;;;;;;;4.80;2.80;;;;;;;;;;5101980;27;20046;-64
2024/01/02 04:03:35;;;;;;;5.55;2.30;;;;;;;;;;5119990;27;20083;-64
2024/01/02 04:06:01;;;;;;;6.85;2.60;;;;;;;;;;5102030;27;20213;-64
2024/01/02 04:08:27;;;;;;;4.22;2.60;;;;;;;;;;5119246;27;20119;-64
2024/01/02 04:10:53;;;;;;;5.60;2.55;;;;;;;;;;5119198;27;20158;-65
2024/01/02 04:13:19;;;;;;;6.85;2.67;;;;;;;;;;5121574;27;20050;-65
2024/01/02 04:15:45;;;;;;;5.45;2.35;;;;;;;;;;5121154;27;20046;-64
2024/01/02 04:18:12;;;;;;;5.95;2.47;;;;;;;;;;5122265;27;20243;-64
2024/01/02 04:20:38;;;;;;;4.90;2.45;;;;;;;;;;5101666;27;20039;-64
2024/01/02 04:23:04;;;;;;;4.28;1.85;;;;;;;;;;5121387;27;20499;-64
2024/01/02 04:25:30;;;;;;;5.35;2.85;;;;;;;;;;5121240;27;20042;-64
2024/01/02 04:27:56;;;;;;;7.25;3.22;;;;;;;;;;5101674;28;20540;-65
2024/01/02 04:30:23;;;;;;;6.60;2.30;;;;;;;;;;5117874;27;20051;-64
2024/01/02 04:32:49;;;;;;;5.93;2.78;;;;;;;;;;5120672;27;20042;-65
2024/01/02 04:35:16;;;;;;;4.25;2.33;;;;;;;;;;5121504;27;20092;-65
2024/01/02 04:37:42;;;;;;;5.57;2.38;;;;;;;;;;5118885;27;20054;-65
2024/01/02 04:40:10;;;;;;;5.20;2.40;;;;;;;;;;5119598;27;20066;-64
2024/01/02 04:42:37;;;;;;;8.30;2.88;;;;;;;;;;5118709;27;20133;-65
2024/01/02 04:45:04;;;;;;;5.72;2.22;;;;;;;;;;5121644;27;20039;-63
2024/01/02 04:47:30;;;;;;;6.13;2.15;;;;;;;;;;5121520;27;20072;-64
2024/01/02 04:49:56;;;;;;;6.30;1.90;;;;;;;;;;5119334;27;20506;-64
2024/01/02 04:52:22;;;;;;;5.30;2.30;;;;;;;;;;5118460;27;20063;-64
2024/01/02 04:54:48;;;;;;;2.63;1.77;;;;;;;;;;5119794;28;20154;-64
2024/01/02 04:57:16;;;;;;;5.35;2.20;;;;;;;;;;5119821;28;20035;-63
2024/01/02 04:59:42;;;;;;;2.63;1.90;;;;;;;;;;5120992;27;20039;-64
2024/01/02 05:02:08;;;;;;;2.60;1.98;;;;;;;;;;5121356;28;20027;-64
2024/01/02 05:04:34;;;;;;;2.85;1.88;;;;;;;;;;5123286;27;20063;-65
2024/01/02 05:07:00;;;;;;;10.15;2.08;;;;;;;;;;5121808;27;20070;-65
2024/01/02 05:09:27;;;;;;;3.63;1.90;;;;;;;;;;5123554;27;20031;-64
2024/01/02 05:11:53;;;;;;;2.60;1.73;;;;;;;;;;5122447;28;20507;-64
2024/01/02 05:14:19;;;;;;;2.85;1.63;;;;;;;;;;5123533;27;20075;-64
2024/01/02 05:16:45;;;;;;;3.33;1.40;;;;;;;;;;5125790;27;20058;-64
2024/01/02 05:19:12;;;;;;;4.43;2.00;;;;;;;;;;5127475;27;20181;-64
2024/01/02 05:21:38;;;;;;;3.65;1.58;;;;;;;;;;5126932;27;20069;-65
2024/01/02 05:24:04;;;;;;;3.47;1.90;;;;;;;;;;5126607;27;20048;-64
2024/01/02 05:26:30;;;;;;;4.32;1.63;;;;;;;;;;5127675;27;20050;-65
2024/01/02 05:28:56;;;;;;;4.13;1.63;;;;;;;;;;5126968;27;20039;-64
2024/01/02 05:31:22;;;;;;;3.83;1.50;;;;;;;;;;5126492;27;20039;-65
2024/01/02 05:33:48;;;;;;;3.88;1.55;;;;;;;;;;5127105;27;20047;-65
2024/01/02 05:36:15;;;;;;;2.28;1.55;;;;;;;;;;5126482;27;20585;-64
2024/01/02 05:38:41;;;;;;;3.33;1.70;;;;;;;;;;5125798;27;20039;-64
2024/01/02 05:41:07;;;;;;;3.10;1.20;;;;;;;;;;5126529;27;20058;-65
2024/01/02 05:43:34;;;;;;;1.98;1.45;;;;;;;;;;5126795;27;20039;-65
2024/01/02 05:46:00;;;;;;;3.67;1.23;;;;;;;;;;5127143;27;20478;-64
2024/01/02 05:48:26;;;;;;;2.88;1.33;;;;;;;;;;5126973;27;20046;-65
2024/01/02 05:50:52;;;;;;;1.85;1.25;;;;;;;;;;5127226;27;20043;-64
2024/01/02 05:53:18;;;;;;;5.85;1.60;;;;;;;;;;5125621;27;20585;-64
2024/01/02 05:55:44;;;;;;;2.17;1.30;;;;;;;;;;5127053;27;20169;-64
2024/01/02 05:58:11;;;;;;;2.90;1.20;;;;;;;;;;5125572;27;20043;-65
2024/01/02 06:00:37;;;;;;;2.38;1.40;;;;;;;;;;5124661;27;20156;-65
2024/01/02 06:03:03;;;;;;;1.42;1.02;;;;;;;;;;5126073;27;20084;-64
2024/01/02 06:05:29;;;;;;;1.65;1.20;;;;;;;;;;5127116;27;20392;-64
2024/01/02 06:07:55;;;;;;;1.98;1.27;;;;;;;;;;5126251;27;20046;-64
2024/01/02 06:10:22;;;;;;;1.30;0.95;;;;;;;;;;5126480;27;20043;-65
2024/01/02 06:12:48;;;;;;;1.25;0.82;;;;;;;;;;5126683;27;20047;-64
2024/01/02 06:15:14;;;;;;;1.38;0.88;;;;;;;;;;5126388;27;20220;-64
2024/01/02 06:17:40;;;;;;;1.17;0.70;;;;;;;;;;5126333;27;20046;-64
2024/01/02 06:20:10;;;;;;;1.05;0.80;;;;;;;;;;5126067;27;20091;-64
2024/01/02 06:22:37;;;;;;;1.00;0.82;;;;;;;;;;5125672;27;20039;-64
2024/01/02 06:25:08;;;;;;;1.95;1.20;;;;;;;;;;5126207;27;20531;-64
2024/01/02 06:27:35;;;;;;;1.10;0.70;;;;;;;;;;5125544;27;20047;-64
2024/01/02 06:30:03;;;;;;;1.30;0.85;;;;;;;;;;5126226;27;20039;-63
2024/01/02 06:32:30;;;;;;;2.28;0.93;;;;;;;;;;5125298;27;20070;-66
2024/01/02 06:34:57;;;;;;;1.02;0.80;;;;;;;;;;5126587;27;20054;-66
2024/01/02 06:37:24;;;;;;;0.70;0.70;;;;;;;;;;5125453;27;20294;-64
2024/01/02 06:39:50;;;;;;;0.65;0.57;;;;;;;;;;5124717;27;20105;-64
2024/01/02 06:42:17;;;;;;;0.82;0.70;;;;;;;;;;5124351;27;20063;-64
2024/01/02 06:44:43;;;;;;;0.60;0.60;;;;;;;;;;5124964;27;20485;-64
2024/01/02 06:47:09;;;;;;;0.93;0.70;;;;;;;;;;5120934;27;20042;-64
2024/01/02 06:49:35;;;;;;;0.82;0.60;;;;;;;;;;5122324;27;20494;-64
2024/01/02 06:52:01;;;;;;;1.15;0.80;;;;;;;;;;5113919;27;20039;-64
2024/01/02 06:54:27;;;;;;;1.33;0.70;;;;;;;;;;5107696;27;20300;-65
2024/01/02 06:56:53;;;;;;;1.38;0.93;;;;;;;;;;5107619;27;20054;-66
2024/01/02 06:59:19;;;;;;;1.38;0.77;;;;;;;;;;5107681;27;20035;-65
2024/01/02 07:01:46;;;;;;;1.27;0.50;;;;;;;;;;5089449;27;20047;-65
2024/01/02 07:04:12;;;;;;;0.50;0.47;;;;;;;;;;5107186;27;20039;-64
2024/01/02 07:06:38;;;;;;;0.80;0.80;;;;;;;;;;5108324;27;20083;-65
2024/01/02 07:09:04;;;;;;;1.02;0.60;;;;;;;;;;5106801;27;20608;-65
2024/01/02 07:11:30;;;;;;;1.02;0.60;;;;;;;;;;5105684;27;20114;-65
2024/01/02 07:13:57;;;;;;;1.15;0.70;;;;;;;;;;5107645;27;21039;-64
2024/01/02 07:16:23;;;;;;;0.93;0.60;;;;;;;;;;5108410;27;20082;-65
2024/01/02 07:18:50;;;;;;;0.90;0.70;;;;;;;;;;5107247;27;20178;-65
2024/01/02 07:21:16;;;;;;;0.80;0.63;;;;;;;;;;5107890;27;20047;-64
2024/01/02 07:23:42;;;;;;;0.47;0.47;;;;;;;;;;5087753;27;20115;-63
2024/01/02 07:26:08;;;;;;;0.60;0.60;;;;;;;;;;5104142;27;20050;-64
2024/01/02 07:28:36;;;;;;;0.77;0.70;;;;;;;;;;5103854;27;20039;-65
2024/01/02 07:31:02;;;;;;;1.00;0.80;;;;;;;;;;5104836;27;20288;-65
2024/01/02 07:33:28;;;;;;;0.80;0.63;;;;;;;;;;5101435;27;20062;-65
2024/01/02 07:35:55;;;;;;;0.68;0.60;;;;;;;;;;5111754;27;20655;-65
2024/01/02 07:38:25;;;;;;;1.98;0.93;;;;;;;;;;5110347;27;20716;-65
2024/01/02 07:40:52;;;;;;;1.88;0.80;;;;;;;;;;5104794;27;20175;-65
2024/01/02 07:43:18;;;;;;;1.15;0.85;;;;;;;;;;5085916;27;20066;-62
2024/01/02 07:45:45;;;;;;;1.25;0.90;;;;;;;;;;5105184;27;20039;-63
2024/01/02 07:48:11;;;;;;;1.33;1.00;;;;;;;;;;5104210;27;20104;-63
2024/01/02 07:50:37;;;;;;;1.95;1.30;;;;;;;;;;5103821;27;20046;-63
2024/01/02 07:53:03;;;;;;;1.80;1.40;;;;;;;;;;5103354;27;20058;-63
2024/01/02 07:55:29;;;;;;;2.95;1.08;;;;;;;;;;5102200;27;20043;-64
2024/01/02 07:57:55;;;;;;;1.20;1.10;;;;;;;;;;5085648;27;20270;-64
2024/01/02 08:00:21;;;;;;;2.50;1.08;;;;;;;;;;5106223;27;20134;-63
2024/01/02 08:02:47;;;;;;;1.13;0.85;;;;;;;;;;5105393;27;20051;-64
2024/01/02 08:05:14;;;;;;;5.07;1.10;;;;;;;;;;5105319;27;20529;-65
2024/01/02 08:07:40;;;;;;;2.88;1.13;;;;;;;;;;5085147;27;20099;-64
2024/01/02 08:10:07;;;;;;;2.33;1.15;;;;;;;;;;5108879;27;20043;-63
2024/01/02 08:12:33;;;;;;;1.83;0.73;;;;;;;;;;5066212;27;20050;-63
2024/01/02 08:15:01;;;;;;;1.05;0.80;;;;;;;;;;5083380;27;20063;-65
2024/01/02 08:17:27;;;;;;;2.90;1.25;;;;;;;;;;5103519;27;20198;-64
2024/01/02 08:19:54;;;;;;;1.90;0.93;;;;;;;;;;5103017;27;20490;-64
2024/01/02 08:22:23;;;;;;;3.53;1.20;;;;;;;;;;5081407;27;20154;-64
2024/01/02 08:24:50;;;;;;;4.15;1.30;;;;;;;;;;5099683;27;20278;-65
2024/01/02 08:27:16;;;;;;;6.00;1.40;;;;;;;;;;5081291;27;20126;-64
2024/01/02 08:29:42;;;;;;;5.60;1.60;;;;;;;;;;5101492;27;20043;-64
2024/01/02 08:32:08;;;;;;;5.43;1.80;;;;;;;;;;5102395;27;20043;-65
2024/01/02 08:34:34;;;;;;;3.28;1.65;;;;;;;;;;5102347;27;20054;-64
2024/01/02 08:37:01;;;;;;;3.63;1.80;;;;;;;;;;5101982;27;20119;-65
2024/01/02 08:39:27;;;;;;;5.57;1.70;;;;;;;;;;5082262;28;20046;-65
2024/01/02 08:41:53;;;;;;;2.83;1.48;;;;;;;;;;5101505;27;20131;-65
2024/01/02 08:44:19;;;;;;;3.72;1.83;;;;;;;;;;5077285;28;20491;-64
2024/01/02 08:46:45;;;;;;;5.57;1.90;;;;;;;;;;5082532;28;20581;-64
2024/01/02 08:49:13;;;;;;;5.10;2.22;;;;;;;;;;5082980;28;20243;-65
2024/01/02 08:51:40;;;;;;;7.63;2.50;;;;;;;;;;5081331;28;20047;-64
2024/01/02 08:54:06;;;;;;;7.22;1.85;;;;;;;;;;5081416;28;20503;-64
2024/01/02 08:56:33;;;;;;;8.35;2.17;;;;;;;;;;5079810;28;20051;-65
2024/01/02 08:58:59;;;;;;;7.22;1.92;;;;;;;;;;5079880;28;20043;-64
2024/01/02 09:01:26;;;;;;;9.45;2.42;;;;;;;;;;5080932;28;20463;-65
2024/01/02 09:03:53;;;;;;;4.35;1.70;;;;;;;;;;5083078;28;20987;-65
2024/01/02 09:06:19;;;;;;;8.00;2.08;;;;;;;;;;5082151;28;20507;-65
2024/01/02 09:08:46;;;;;;;4.10;1.98;;;;;;;;;;5082761;28;20043;-64
2024/01/02 09:11:12;;;;;;;5.43;2.05;;;;;;;;;;5083533;28;20199;-64
2024/01/02 09:13:39;;;;;;;3.90;1.55;;;;;;;;;;5082900;28;20108;-64
2024/01/02 09:16:05;;;;;;;8.50;2.67;;;;;;;;;;5082020;28;20051;-65
2024/01/02 09:18:31;;;;;;;7.75;2.13;;;;;;;;;;5082831;28;20070;-64
2024/01/02 09:20:57;;;;;;;9.23;1.85;;;;;;;;;;5082608;28;20032;-63
2024/01/02 09:23:24;;;;;;;9.25;3.38;;;;;;;;;;5084834;28;20154;-64
2024/01/02 09:25:51;;;;;;;6.90;1.90;;;;;;;;;;5084273;28;20542;-64
2024/01/02 09:28:19;;;;;;;4.90;2.05;;;;;;;;;;5083594;28;20071;-63
2024/01/02 09:30:46;;;;;;;8.45;3.08;;;;;;;;;;5081145;28;20052;-64
2024/01/02 09:33:12;;;;;;;11.75;2.45;;;;;;;;;;5083669;28;20048;-63
2024/01/02 09:35:38;;;;;;;8.07;3.20;;;;;;;;;;5083514;28;20043;-64
2024/01/02 09:38:04;;;;;;;7.05;2.42;;;;;;;;;;5081509;28;20163;-64
2024/01/02 09:40:50;;;;;;;7.35;2.92;;;;;;;;;;5082770;28;20267;-63
2024/01/02 09:43:17;;;;;;;7.80;2.50;;;;;;;;;;5088107;28;20229;-65
2024/01/02 09:45:47;;;;;;;7.25;1.88;;;;;;;;;;5102710;28;20417;-65
2024/01/02 09:48:49;;;;;;;11.35;3.22;;;;;;;;;;5103133;27;20523;-65
2024/01/02 09:51:28;;;;;;;9.85;2.13;;;;;;;;;;5017603;28;20037;-65
2024/01/02 09:54:15;;;;;;;7.82;2.67;;;;;;;;;;5093133;28;20047;-67
2024/01/02 09:56:41;;;;;;;10.20;3.65;;;;;;;;;;5101308;28;20198;-68
2024/01/02 09:59:26;;;;;;;14.07;2.63;;;;;;;;;;5101636;27;20800;-68
2024/01/02 10:02:01;;;;;;;9.80;2.80;;;;;;;;;;5104567;27;20049;-67
2024/01/02 10:04:30;;;;;;;6.28;2.75;;;;;;;;;;5104388;27;20031;-68
2024/01/02 10:07:08;;;;;;;6.32;2.33;;;;;;;;;;5085512;27;20257;-67
2024/01/02 10:09:43;;;;;;;13.27;2.70;;;;;;;;;;5107106;27;20043;-68
2024/01/02 10:12:30;;;;;;;12.27;3.63;;;;;;;;;;5105402;27;20329;-67
2024/01/02 10:14:59;;;;;;;8.38;2.90;;;;;;;;;;5087251;27;20669;-68
2024/01/02 10:17:35;;;;;;;13.50;3.25;;;;;;;;;;5106333;27;20394;-68
2024/01/02 10:20:20;;;;;;;9.90;2.17;;;;;;;;;;5086818;27;20418;-69
2024/01/02 10:23:12;;;;;;;6.82;2.70;;;;;;;;;;5106371;27;20293;-69
2024/01/02 10:25:40;;;;;;;6.85;3.35;;;;;;;;;;5071062;27;20059;-67
2024/01/02 10:28:07;;;;;;;7.45;2.97;;;;;;;;;;5107440;27;20158;-68
2024/01/02 10:30:39;;;;;;;9.73;3.47;;;;;;;;;;5108004;27;20110;-69
2024/01/02 10:33:05;;;;;;;7.07;3.42;;;;;;;;;;5088246;27;20750;-68
2024/01/02 10:35:31;;;;;;;8.27;3.17;;;;;;;;;;5087981;27;20043;-68
2024/01/02 10:38:06;;;;;;;14.93;3.65;;;;;;;;;;5086504;27;20673;-68
2024/01/02 10:40:32;;;;;;;10.25;3.53;;;;;;;;;;5106273;27;20543;-69
2024/01/02 10:43:06;;;;;;;9.88;3.55;;;;;;;;;;5106697;27;20046;-69
2024/01/02 10:45:47;;;;;;;9.18;2.90;;;;;;;;;;5107370;27;20479;-69
2024/01/02 10:48:22;;;;;;;11.07;2.88;;;;;;;;;;5107118;27;20047;-69
2024/01/02 10:51:03;;;;;;;11.40;3.90;;;;;;;;;;5088230;27;20039;-68
2024/01/02 10:53:39;;;;;;;10.77;3.88;;;;;;;;;;5104985;27;20106;-68
2024/01/02 10:56:13;;;;;;;6.18;2.80;;;;;;;;;;5105377;27;20155;-68
2024/01/02 10:58:48;;;;;;;16.60;4.15;;;;;;;;;;5106452;27;20368;-68
2024/01/02 11:01:18;;;;;;;8.10;2.88;;;;;;;;;;5105489;27;20414;-69
2024/01/02 11:04:18;;;;;;;10.50;3.00;;;;;;;;;;5086230;27;20039;-69
2024/01/02 11:06:45;;;;;;;12.48;3.55;;;;;;;;;;5083908;27;20043;-68
2024/01/02 11:09:19;;;;;;;11.50;4.05;;;;;;;;;;5105340;27;20365;-69
2024/01/02 11:11:50;;;;;;;13.88;4.80;;;;;;;;;;5105887;27;20118;-68
2024/01/02 11:14:17;;;;;;;7.13;3.40;;;;;;;;;;5105456;27;20618;-68
2024/01/02 11:16:45;;;;;;;11.35;2.88;;;;;;;;;;5106197;27;20582;-68
2024/01/02 11:19:14;;;;;;;11.63;3.17;;;;;;;;;;5087194;27;20127;-68
2024/01/02 11:21:55;;;;;;;16.75;3.80;;;;;;;;;;5105749;27;20411;-69
2024/01/02 11:24:23;;;;;;;13.73;4.32;;;;;;;;;;5106461;27;20039;-68
2024/01/02 11:26:50;;;;;;;10.57;3.90;;;;;;;;;;5106357;27;20111;-68
2024/01/02 11:29:18;;;;;;;11.38;4.25;;;;;;;;;;5106068;27;20039;-68
2024/01/02 11:31:46;;;;;;;13.45;3.70;;;;;;;;;;5106951;27;20038;-68
2024/01/02 11:34:25;;;;;;;12.75;3.28;;;;;;;;;;5105795;27;20043;-69
2024/01/02 11:37:03;;;;;;;13.45;4.28;;;;;;;;;;5104382;27;20550;-69
2024/01/02 11:39:48;;;;;;;17.38;2.95;;;;;;;;;;5104928;27;20230;-69
2024/01/02 11:42:14;;;;;;;8.43;3.20;;;;;;;;;;5105940;27;20043;-69
2024/01/02 11:44:59;;;;;;;9.20;3.05;;;;;;;;;;5104864;27;20122;-69
2024/01/02 11:47:25;;;;;;;12.93;3.80;;;;;;;;;;5086908;27;20563;-69
2024/01/02 11:49:54;;;;;;;11.32;3.80;;;;;;;;;;5105196;27;20299;-68
2024/01/02 11:52:20;;;;;;;10.55;3.50;;;;;;;;;;5104591;27;20486;-69
2024/01/02 11:54:46;;;;;;;15.40;3.45;;;;;;;;;;5104824;27;20047;-68
2024/01/02 11:57:20;;;;;;;10.32;4.47;;;;;;;;;;5100893;27;20092;-68
2024/01/02 11:59:57;;;;;;;8.60;3.03;;;;;;;;;;5105180;27;20388;-69
2024/01/02 12:02:35;;;;;;;11.63;4.00;;;;;;;;;;5103292;27;20313;-68
2024/01/02 12:05:04;;;;;;;12.45;3.35;;;;;;;;;;5106440;27;20288;-71
2024/01/02 12:07:31;;;;;;;15.13;3.83;;;;;;;;;;5105111;27;20051;-69
2024/01/02 12:09:58;;;;;;;9.70;3.10;;;;;;;;;;5105147;27;20054;-69
2024/01/02 12:12:37;;;;;;;13.05;3.30;;;;;;;;;;5082776;27;20062;-68
2024/01/02 12:15:06;;;;;;;8.27;3.28;;;;;;;;;;5106764;27;20047;-68
2024/01/02 12:17:37;;;;;;;13.80;4.00;;;;;;;;;;5104759;27;20047;-68
2024/01/02 12:20:08;;;;;;;11.48;3.88;;;;;;;;;;5086741;27;20351;-68
2024/01/02 12:22:35;;;;;;;15.18;4.57;;;;;;;;;;5103611;27;20092;-69
2024/01/02 12:25:08;;;;;;;10.10;3.67;;;;;;;;;;5085692;27;20071;-68
2024/01/02 12:27:35;;;;;;;14.55;4.53;;;;;;;;;;5103951;27;20440;-68
2024/01/02 12:30:04;;;;;;;8.63;4.20;;;;;;;;;;5086413;27;20047;-68
2024/01/02 12:32:42;;;;;;;10.38;3.92;;;;;;;;;;5105191;27;20221;-69
2024/01/02 12:35:09;;;;;;;13.32;4.22;;;;;;;;;;5086880;27;20054;-69
2024/01/02 12:37:41;;;;;;;18.05;5.13;;;;;;;;;;5083470;27;20540;-69
2024/01/02 12:40:10;;;;;;;24.23;5.40;;;;;;;;;;5103552;27;20043;-69
2024/01/02 12:42:41;;;;;;;11.02;4.25;;;;;;;;;;5103005;27;20410;-69
2024/01/02 12:45:09;;;;;;;12.82;5.55;;;;;;;;;;5102677;27;20492;-70
2024/01/02 12:47:40;;;;;;;15.05;4.57;;;;;;;;;;5102753;27;20080;-69
2024/01/02 12:50:08;;;;;;;17.13;5.15;;;;;;;;;;5100944;27;20376;-69
2024/01/02 12:52:43;;;;;;;16.17;5.55;;;;;;;;;;5102127;27;20039;-69
2024/01/02 12:55:10;;;;;;;12.93;4.22;;;;;;;;;;5097256;28;20074;-69
2024/01/02 12:57:37;;;;;;;15.70;4.93;;;;;;;;;;5101770;27;20047;-69
2024/01/02 13:00:08;;;;;;;19.23;5.30;;;;;;;;;;5102230;27;20110;-69
2024/01/02 13:02:37;;;;;;;18.90;6.75;;;;;;;;;;5102824;28;20051;-69
2024/01/02 13:05:07;;;;;;;11.35;5.05;;;;;;;;;;5103691;28;20522;-70
2024/01/02 13:07:37;;;;;;;17.85;5.28;;;;;;;;;;5101453;27;20422;-69
2024/01/02 13:10:04;;;;;;;15.32;5.60;;;;;;;;;;5102009;28;20049;-69
2024/01/02 13:12:32;;;;;;;17.48;5.82;;;;;;;;;;5103156;27;20558;-68
2024/01/02 13:14:58;;;;;;;18.63;5.22;;;;;;;;;;5102042;27;20073;-68
2024/01/02 13:17:24;;;;;;;14.23;5.60;;;;;;;;;;5103352;27;20041;-68
2024/01/02 13:19:51;;;;;;;15.80;5.05;;;;;;;;;;5103493;28;20540;-69
2024/01/02 13:22:23;;;;;;;13.73;4.95;;;;;;;;;;5101870;28;20111;-69
2024/01/02 13:24:51;;;;;;;18.67;6.00;;;;;;;;;;5103055;28;20716;-69
2024/01/02 13:27:24;;;;;;;13.50;5.05;;;;;;;;;;5101534;28;20066;-69
2024/01/02 13:29:50;;;;;;;16.63;6.43;;;;;;;;;;5101755;28;20045;-68
2024/01/02 13:32:16;;;;;;;22.08;6.65;;;;;;;;;;5103259;27;20039;-69
2024/01/02 13:34:43;;;;;;;15.07;6.35;;;;;;;;;;5103220;27;20180;-69
2024/01/02 13:37:22;;;;;;;16.80;6.95;;;;;;;;;;5103869;27;20043;-68
2024/01/02 13:39:49;;;;;;;15.98;6.80;;;;;;;;;;5085904;27;20046;-69
2024/01/02 13:42:25;;;;;;;15.40;6.40;;;;;;;;;;5105665;27;20619;-68
2024/01/02 13:44:52;;;;;;;26.02;6.70;;;;;;;;;;5105522;27;20193;-69
2024/01/02 13:47:18;;;;;;;20.67;7.00;;;;;;;;;;5085760;27;20679;-69
2024/01/02 13:49:46;;;;;;;20.02;7.43;;;;;;;;;;5106580;27;20067;-69
2024/01/02 13:52:12;;;;;;;16.52;7.30;;;;;;;;;;5085913;27;20115;-69
2024/01/02 13:54:42;;;;;;;13.63;6.43;;;;;;;;;;5106126;27;20143;-69
2024/01/02 13:57:08;;;;;;;19.45;6.50;;;;;;;;;;5106880;27;20039;-69
2024/01/02 13:59:35;;;;;;;17.02;7.38;;;;;;;;;;5085403;27;20373;-69
2024/01/02 14:02:12;;;;;;;14.68;5.45;;;;;;;;;;5069161;27;20203;-69
2024/01/02 14:04:39;;;;;;;18.30;6.18;;;;;;;;;;5106378;27;20625;-69
2024/01/02 14:07:05;;;;;;;13.88;6.35;;;;;;;;;;5105919;27;20043;-70
2024/01/02 14:09:32;;;;;;;10.70;4.90;;;;;;;;;;5086892;27;20202;-68
2024/01/02 14:12:01;;;;;;;13.80;5.75;;;;;;;;;;5105387;27;20042;-69
2024/01/02 14:14:29;;;;;;;11.93;5.82;;;;;;;;;;5104437;27;20047;-70
2024/01/02 14:16:59;;;;;;;13.50;5.78;;;;;;;;;;5084981;27;20300;-69
2024/01/02 14:19:27;;;;;;;9.80;5.60;;;;;;;;;;5104743;27;20125;-69
2024/01/02 14:21:56;;;;;;;15.57;6.32;;;;;;;;;;5104778;27;20514;-69
2024/01/02 14:24:27;;;;;;;11.57;5.60;;;;;;;;;;5106025;27;20128;-69
2024/01/02 14:27:16;;;;;;;14.52;5.78;;;;;;;;;;5106298;27;20393;-69
2024/01/02 14:30:03;;;;;;;17.90;6.43;;;;;;;;;;5092059;27;20051;-69
2024/01/02 14:32:30;;;;;;;17.88;6.78;;;;;;;;;;5088256;27;20348;-69
2024/01/02 14:34:59;;;;;;;15.65;6.20;;;;;;;;;;5069415;27;20583;-69
2024/01/02 14:37:28;;;;;;;23.15;6.38;;;;;;;;;;5105678;27;20079;-69
2024/01/02 14:40:04;;;;;;;28.70;7.45;;;;;;;;;;5105556;27;20554;-69
2024/01/02 14:42:30;;;;;;;15.15;5.13;;;;;;;;;;5106695;27;20062;-69
2024/01/02 14:44:59;;;;;;;11.50;6.07;;;;;;;;;;5106225;27;20322;-69